Sud Menucci, Brazil
Current Conditions -  °F | °C
As of 6:00 PM on Saturday 20 Dec 2014 (Local Time) from SBDN Reporting Station
Few Clouds Few Clouds  
Wind Chill: 91°   Ceiling: Unl
Heat Index: 94°   Visibility: 6mi
Dew Point: 66°   Wind: 8mph
Humidity: 43%   Direction: 360°N
Pressure: 29.71"   Gusts: NA
Location:  20.7°S, 50.92°W
Report Text: SBDN 202000Z 36007KT 9999 FEW045 33/19 Q1006
Loading
Personal Weather Stations






























Interactive Weather Map New forecast layout! Learn more

10-Day Weather Forecast

Advertisements
Track Severe Weather on mobile